Latest Weather Observations for Cape Byron

IDN60801

Issued at 8:35 am EDT Wednesday 22 October 2014 (issued every 30 minutes, with the page automatically refreshed every 10 minutes)

About weather observations | Map of weather stations | Latest weather observations for NSW | Other Formats
Station Details ID: 058216 Name: CAPE BYRON AWS Lat: -28.64 Lon: 153.64 Height: 95.0 m
Data from the previous 72 hours. | See also: Recent months at Cape Byron
Date/Time
EDT
Temp
°C
App
Temp
°C
Dew
Point
Rel
Hum
%
Delta-T
°C
Wind Press
QNH
hPa
Press
MSL
hPa
Rain
since 9 am
mm
Dir
 
Spd
km/h
Gust
km/h
Spd
kts
Gust
kts
22/08:30am 15.2 11.9 13.9 92 0.7 WSW 24 30 13 16 1026.3 1026.0 5.6
22/08:00am 14.9 12.3 13.8 93 0.6 WSW 20 26 11 14 1025.9 1025.6 5.6
22/07:30am 14.6 12.1 13.5 93 0.6 WSW 19 24 10 13 1025.9 1025.6 5.6
22/07:00am 14.2 11.6 13.1 93 0.6 WSW 19 24 10 13 1025.7 1025.4 5.6
22/06:30am 14.2 11.4 13.2 94 0.6 SW 20 24 11 13 1025.7 1025.4 5.6
22/06:00am 14.2 11.6 13.1 93 0.6 SW 19 22 10 12 1025.6 1025.3 5.6
22/05:30am 14.4 11.6 13.3 93 0.6 SW 20 24 11 13 1025.5 1025.2 5.6
22/05:00am 14.5 11.8 13.4 93 0.6 SW 20 26 11 14 1025.6 1025.3 5.6
22/04:30am 14.7 12.0 13.6 93 0.6 SW 20 26 11 14 1025.5 1025.2 5.4
22/04:00am 14.7 12.0 13.6 93 0.6 SW 20 24 11 13 1025.7 1025.4 5.4
22/03:30am 14.9 11.9 13.6 92 0.7 SW 22 30 12 16 1025.9 1025.6 5.4
22/03:00am 15.2 12.1 13.4 89 1.0 WSW 22 28 12 15 1026.1 1025.8 4.0
22/02:30am 15.5 13.8 13.7 89 1.0 SW 15 20 8 11 1026.2 1025.9 4.0
22/02:00am 15.6 13.0 13.8 89 1.0 SW 20 35 11 19 1026.6 1026.4 3.8
22/01:30am 16.6 12.9 13.9 84 1.5 SE 26 37 14 20 1027.1 1026.8 3.8
22/01:00am 15.7 11.0 14.2 91 0.8 SE 32 43 17 23 1027.3 1027.0 3.8
22/12:30am 15.6 12.7 14.1 91 0.9 SW 22 30 12 16 1027.9 1027.6 2.4
22/12:00am 16.0 14.2 14.4 90 0.9 S 17 20 9 11 1028.4 1028.1 2.2
 
Date/Time
EDT
Temp
°C
App
Temp
°C
Dew
Point
Rel
Hum
%
Delta-T
°C
Wind Press
QNH
hPa
Press
MSL
hPa
Rain
since 9 am
mm
Dir
 
Spd
km/h
Gust
km/h
Spd
kts
Gust
kts
21/11:30pm 16.0 13.0 13.7 86 1.3 SW 22 28 12 15 1028.5 1028.2 0.8
21/11:00pm 16.1 10.6 13.6 85 1.4 SSW 35 46 19 25 1028.7 1028.4 0.8
21/10:30pm 17.4 12.7 14.3 82 1.8 S 32 39 17 21 1028.9 1028.6 0.8
21/10:00pm 16.9 12.0 13.6 81 1.9 S 32 39 17 21 1028.7 1028.4 0.8
21/09:30pm 16.8 14.0 13.1 79 2.1 SW 20 30 11 16 1028.5 1028.2 0.8
21/09:00pm 18.2 13.3 13.7 75 2.6 SE 32 44 17 24 1028.4 1028.1 0.8
21/08:30pm 18.1 13.4 14.4 79 2.1 SE 32 44 17 24 1027.9 1027.6 0.8
21/08:26pm 18.3 14.4 14.4 78 2.3 SSE 28 43 15 23 1028.1 1027.8 0.8
21/08:00pm 16.7 10.9 13.8 83 1.6 S 37 48 20 26 1028.1 1027.8 0.8
21/07:52pm 16.7 9.7 13.8 83 1.6 S 43 48 23 26 1028.1 1027.8 0.8
21/07:41pm 17.9 11.3 13.8 77 2.3 SSE 41 50 22 27 1027.9 1027.6 0.8
21/07:30pm 18.2 11.1 13.3 73 2.8 SSW 43 54 23 29 1027.7 1027.4 0.8
21/07:00pm 17.3 13.0 14.4 83 1.7 SSW 30 43 16 23 1027.4 1027.1 0.8
21/06:30pm 18.2 13.4 13.9 76 2.5 SSE 32 43 17 23 1027.3 1027.0 0.6
21/06:20pm 18.5 13.4 13.6 73 2.8 SSE 33 43 18 23 1027.3 1027.0 0.6
21/06:00pm 18.4 11.2 13.0 71 3.0 S 43 50 23 27 1027.0 1026.7 0.6
21/05:30pm 18.7 10.8 13.8 73 2.8 S 48 57 26 31 1026.9 1026.6 0.6
21/05:00pm 18.4 12.7 14.1 76 2.5 S 37 48 20 26 1026.9 1026.6 0.6
21/04:30pm 18.9 10.7 14.0 73 2.8 S 50 63 27 34 1026.9 1026.6 0.6
21/04:00pm 19.5 12.3 14.7 74 2.8 SSW 46 57 25 31 1026.7 1026.5 0.6
21/03:30pm 19.2 12.0 13.8 71 3.1 SSW 44 54 24 29 1026.9 1026.6 0.6
21/03:00pm 20.0 12.6 13.2 65 3.9 S 44 52 24 28 1027.0 1026.7 0.6
21/02:30pm 19.5 12.7 14.3 72 3.0 S 43 50 23 27 1027.3 1027.0 0.6
21/02:00pm 18.6 11.5 14.9 79 2.2 SSW 46 52 25 28 1027.5 1027.2 0.6
21/01:30pm 17.2 11.9 15.4 89 1.1 SSW 37 52 20 28 1027.9 1027.6 0.4
21/01:00pm 17.4 14.3 15.7 90 1.0 SSW 26 35 14 19 1028.3 1028.0 0.4
21/12:30pm 18.0 14.1 15.6 86 1.4 SW 30 41 16 22 1028.4 1028.1 0.0
21/12:00pm 17.8 11.3 15.2 85 1.5 SSW 43 56 23 30 1028.4 1028.1 0.0
21/11:30am 19.7 16.3 15.8 78 2.3 SW 28 39 15 21 1028.5 1028.2 0.0
21/11:00am 18.3 13.9 15.2 82 1.8 SW 32 41 17 22 1028.7 1028.4 0.0
21/10:30am 19.0 14.7 15.5 80 2.1 SW 32 50 17 27 1028.7 1028.4 0.0
21/10:24am 19.2 14.9 15.5 79 2.2 SSW 32 50 17 27 1028.7 1028.4 0.0
21/10:00am 19.5 14.4 14.7 74 2.8 SSW 35 48 19 26 1028.8 1028.5 0.0
21/09:30am 19.6 13.5 14.0 70 3.2 S 39 46 21 25 1028.7 1028.4 0.0
21/09:00am 19.8 12.6 13.7 68 3.5 S 44 50 24 27 1028.3 1028.0 3.0
21/08:30am 19.8 12.7 13.3 66 3.7 S 43 50 23 27 1027.9 1027.6 3.0
21/08:00am 19.8 12.5 13.3 66 3.7 S 44 54 24 29 1027.6 1027.3 3.0
21/07:30am 19.7 12.5 13.2 66 3.7 S 43 52 23 28 1027.3 1027.0 3.0
21/07:00am 19.5 12.5 13.7 69 3.3 S 43 56 23 30 1027.2 1026.9 3.0
21/06:30am 19.6 11.4 12.8 65 3.8 S 48 56 26 30 1026.9 1026.6 3.0
21/06:00am 19.7 11.7 13.4 67 3.6 S 48 56 26 30 1026.4 1026.2 3.0
21/05:30am 19.9 12.8 14.0 69 3.4 S 44 57 24 31 1026.2 1025.9 3.0
21/05:00am 19.9 14.6 15.3 75 2.7 S 37 46 20 25 1025.8 1025.5 3.0
21/04:30am 19.8 13.6 14.8 73 2.9 S 41 50 22 27 1025.8 1025.5 3.0
21/04:00am 19.7 13.6 15.1 75 2.7 S 41 54 22 29 1025.8 1025.5 3.0
21/03:30am 19.6 13.1 15.5 77 2.4 S 44 56 24 30 1026.0 1025.7 2.8
21/03:00am 19.0 13.2 16.0 83 1.8 SSE 41 54 22 29 1025.9 1025.6 2.8
21/02:30am 18.9 13.9 17.0 89 1.2 SSE 39 52 21 28 1026.0 1025.7 0.4
21/02:25am 19.3 14.4 17.4 89 1.2 SSE 39 50 21 27 1026.0 1025.7 0.0
21/02:19am 18.8 15.6 17.3 91 0.9 S 30 48 16 26 1026.1 1025.8 0.0
21/02:00am 18.3 16.4 16.6 90 1.0 SW 22 32 12 17 1026.4 1026.2 0.0
21/01:30am 18.2 15.8 16.4 89 1.1 SW 24 32 13 17 1026.4 1026.2 0.0
21/01:00am 18.4 15.6 16.4 88 1.2 SW 26 33 14 18 1026.9 1026.6 0.0
21/12:30am 18.6 16.2 16.4 87 1.3 SW 24 35 13 19 1027.2 1026.9 0.0
21/12:00am 18.6 15.4 16.2 86 1.4 SW 28 41 15 22 1027.4 1027.1 0.0
 
Date/Time
EDT
Temp
°C
App
Temp
°C
Dew
Point
Rel
Hum
%
Delta-T
°C
Wind Press
QNH
hPa
Press
MSL
hPa
Rain
since 9 am
mm
Dir
 
Spd
km/h
Gust
km/h
Spd
kts
Gust
kts
20/11:30pm 19.0 15.9 16.6 86 1.4 SW 28 39 15 21 1027.6 1027.3 0.0
20/11:00pm 19.3 17.4 16.7 85 1.6 SW 22 30 12 16 1027.7 1027.4 0.0
20/10:30pm 18.9 17.4 16.3 85 1.6 SW 19 26 10 14 1027.6 1027.3 0.0
20/10:00pm 18.9 17.3 16.1 84 1.7 SW 19 24 10 13 1027.6 1027.3 0.0
20/09:30pm 19.3 17.8 15.4 78 2.3 SW 17 24 9 13 1027.5 1027.2 0.0
20/09:00pm 19.8 18.1 14.8 73 2.9 SW 17 20 9 11 1027.4 1027.1 0.0
20/08:30pm 20.2 17.3 15.2 73 3.0 S 24 28 13 15 1026.9 1026.6 0.0
20/08:00pm 20.0 17.3 14.6 71 3.1 S 22 26 12 14 1026.4 1026.2 0.0
20/07:30pm 19.7 17.3 14.3 71 3.1 S 20 24 11 13 1026.0 1025.7 0.0
20/07:00pm 19.8 17.3 13.5 67 3.6 S 19 22 10 12 1025.6 1025.3 0.0
20/06:30pm 20.5 18.8 13.5 64 4.0 SSE 15 19 8 10 1025.4 1025.1 0.0
20/06:00pm 21.5 20.2 12.4 56 5.1 SE 11 15 6 8 1024.8 1024.5 0.0
20/05:30pm 22.5 21.5 12.2 52 5.9 ENE 9 13 5 7 1024.4 1024.1 0.0
20/05:00pm 23.9 23.3 13.4 51 6.1 NE 9 13 5 7 1024.1 1023.8 0.0
20/04:30pm 23.8 22.7 14.2 55 5.7 NNE 13 15 7 8 1023.8 1023.5 0.0
20/04:00pm 22.9 20.5 12.5 52 5.9 NNE 17 20 9 11 1023.5 1023.2 0.0
20/03:30pm 23.2 21.1 12.5 51 6.1 NNE 15 20 8 11 1023.5 1023.2 0.0
20/03:00pm 23.3 21.3 14.0 56 5.4 NNE 17 24 9 13 1023.6 1023.3 0.0
20/02:30pm 23.5 20.9 13.7 54 5.7 NNE 20 26 11 14 1023.8 1023.5 0.0
20/02:00pm 24.4 21.2 14.2 53 6.0 NNE 24 28 13 15 1024.2 1023.9 0.0
20/01:30pm 23.8 20.0 13.6 52 6.0 NNE 26 30 14 16 1024.3 1024.0 0.0
20/01:00pm 23.5 19.7 13.7 54 5.7 NE 26 32 14 17 1024.4 1024.1 0.0
20/12:30pm 23.3 19.6 13.8 55 5.6 NE 26 32 14 17 1024.6 1024.3 0.0
20/12:00pm 22.7 19.1 12.9 54 5.6 NE 24 32 13 17 1025.0 1024.7 0.0
20/11:30am 22.3 19.4 12.8 55 5.4 NNE 20 28 11 15 1025.2 1024.9 0.0
20/11:00am 21.7 19.2 12.3 55 5.3 NNE 17 26 9 14 1025.3 1025.0 0.0
20/10:30am 21.8 19.8 12.6 56 5.2 NNE 15 20 8 11 1025.7 1025.4 0.0
20/10:00am 21.3 19.8 13.2 60 4.6 N 13 19 7 10 1025.8 1025.5 0.0
20/09:30am 20.2 19.0 12.7 62 4.3 N 11 15 6 8 1025.7 1025.4 0.0
20/09:00am 19.5 18.5 12.3 63 4.0 N 9 13 5 7 1025.8 1025.5 0.0
20/08:30am 18.6 17.4 11.7 64 3.8 N 9 13 5 7 1025.7 1025.4 0.0
20/08:00am 18.3 17.4 11.4 64 3.8 N 7 11 4 6 1025.5 1025.2 0.0
20/07:30am 17.0 16.3 11.5 70 3.0 NNW 6 9 3 5 1025.4 1025.1 0.0
20/07:00am 16.1 15.2 11.3 73 2.6 NW 7 11 4 6 1025.1 1024.8 0.0
20/06:30am 15.5 13.8 11.3 76 2.3 NW 11 15 6 8 1024.9 1024.6 0.0
20/06:00am 15.5 13.8 11.1 75 2.3 WNW 11 15 6 8 1024.8 1024.5 0.0
20/05:30am 15.5 13.8 11.1 75 2.4 WNW 11 15 6 8 1024.8 1024.5 0.0
20/05:00am 15.5 13.4 11.1 75 2.3 WNW 13 15 7 8 1024.7 1024.4 0.0
20/04:30am 15.6 13.5 11.2 75 2.4 NW 13 15 7 8 1024.7 1024.4 0.0
20/04:00am 15.5 13.4 11.1 75 2.3 NW 13 13 7 7 1024.7 1024.4 0.0
20/03:30am 15.5 13.7 10.9 74 2.5 NW 11 13 6 7 1024.8 1024.5 0.0
20/03:00am 15.7 14.0 11.1 74 2.5 NW 11 13 6 7 1025.0 1024.7 0.0
20/02:30am 16.2 14.5 11.2 72 2.7 NW 11 13 6 7 1025.4 1025.1 0.0
20/02:00am 16.4 14.6 10.7 69 3.0 NW 11 13 6 7 1025.7 1025.4 0.0
20/01:30am 17.1 16.2 11.2 68 3.2 NNW 7 11 4 6 1026.1 1025.8 0.0
20/01:00am 17.7 16.5 11.7 68 3.3 N 9 13 5 7 1026.4 1026.2 0.0
20/12:30am 17.9 16.3 11.7 67 3.4 N 11 17 6 9 1026.6 1026.4 0.0
20/12:00am 18.6 15.5 11.7 64 3.8 NE 19 24 10 13 1026.9 1026.6 0.0
 
Date/Time
EDT
Temp
°C
App
Temp
°C
Dew
Point
Rel
Hum
%
Delta-T
°C
Wind Press
QNH
hPa
Press
MSL
hPa
Rain
since 9 am
mm
Dir
 
Spd
km/h
Gust
km/h
Spd
kts
Gust
kts
19/11:30pm 18.4 15.6 11.5 64 3.8 NE 17 24 9 13 1027.1 1026.8 0.0
19/11:00pm 18.2 15.0 12.0 67 3.4 ENE 20 28 11 15 1027.0 1026.7 0.0
19/10:30pm 17.7 14.5 11.3 66 3.5 ENE 19 26 10 14 1026.9 1026.6 0.0
19/10:00pm 17.6 14.8 11.4 67 3.4 ENE 17 22 9 12 1026.9 1026.6 0.0
19/09:30pm 17.8 14.6 11.4 66 3.5 ENE 19 24 10 13 1026.9 1026.6 0.0
19/09:00pm 18.0 15.9 11.3 65 3.6 E 13 20 7 11 1026.5 1026.3 0.0
19/08:30pm 18.1 16.5 11.4 65 3.7 E 11 19 6 10 1026.2 1025.9 0.0
19/08:00pm 18.2 16.1 11.3 64 3.8 E 13 24 7 13 1025.8 1025.5 0.0
19/07:30pm 18.7 17.1 11.5 63 4.0 ENE 11 20 6 11 1025.6 1025.3 0.0
19/07:00pm 19.1 - 11.4 61 4.2 - - - - - 1025.4 1025.1 -
19/06:30pm 20.4 18.1 11.6 57 4.9 NE 15 24 8 13 1025.3 1025.0 0.0
19/06:00pm 21.4 18.8 12.0 55 5.3 NE 17 22 9 12 1025.1 1024.8 0.0
19/05:30pm 21.8 18.1 11.5 52 5.8 NE 22 26 12 14 1024.9 1024.6 0.0
19/05:00pm 22.3 18.0 10.8 48 6.3 NE 24 28 13 15 1024.8 1024.5 0.0
19/04:30pm 22.4 17.9 9.9 45 6.8 NE 24 26 13 14 1024.7 1024.4 0.0
19/04:00pm 22.7 18.5 11.1 48 6.4 NE 24 28 13 15 1025.0 1024.7 0.0
19/03:30pm 22.3 17.8 10.1 46 6.7 NE 24 30 13 16 1025.0 1024.7 0.0
19/03:00pm 22.5 18.4 11.3 49 6.2 ENE 24 32 13 17 1025.3 1025.0 0.0
19/02:30pm 21.6 17.4 11.0 51 5.9 ENE 24 30 13 16 1025.7 1025.4 0.0
19/02:00pm 21.6 16.9 10.7 50 6.0 ENE 26 33 14 18 1026.3 1026.0 0.0
19/01:30pm 21.5 16.3 10.3 49 6.1 ENE 28 32 15 17 1027.0 1026.7 0.0
19/01:00pm 21.8 17.7 11.5 52 5.7 E 24 30 13 16 1027.3 1027.0 0.0
19/12:30pm 21.4 17.3 11.4 53 5.6 E 24 28 13 15 1027.6 1027.3 0.0
19/12:00pm 21.5 17.9 11.8 54 5.4 E 22 32 12 17 1027.8 1027.5 0.0
19/11:30am 21.5 17.6 10.9 51 5.9 SE 22 28 12 15 1028.2 1027.9 0.0
19/11:00am 21.3 18.4 12.4 57 5.0 SE 19 24 10 13 1028.5 1028.2 0.0
19/10:30am 19.8 17.2 13.7 68 3.5 S 20 24 11 13 1028.7 1028.4 0.0
19/10:00am 19.4 16.7 12.9 66 3.7 S 19 22 10 12 1028.8 1028.5 0.0
19/09:30am 19.7 17.9 13.4 67 3.6 SSW 15 19 8 10 1028.7 1028.4 0.0
19/09:00am 18.7 17.1 13.8 73 2.8 SW 15 20 8 11 1028.6 1028.3 1.2

Other Formats:

Comma delimited format used in spreadsheet applications
http://www.bom.gov.au/fwo/IDN60801/IDN60801.94599.axf

JavaScript Object Notation format (JSON) in row-major order
http://www.bom.gov.au/fwo/IDN60801/IDN60801.94599.json